createdAt,value
2023-02-15T00:00:55.101Z,95615.25
2023-02-15T00:03:22.359Z,95612.84
2023-02-15T00:05:49.108Z,95607.31
2023-02-15T00:08:16.129Z,95615.59
2023-02-15T00:10:43.148Z,95610.44
2023-02-15T00:13:09.847Z,95605.34
2023-02-15T00:15:36.728Z,95602.97
2023-02-15T00:18:03.829Z,95598.25
2023-02-15T00:20:30.576Z,95604.19
2023-02-15T00:22:57.507Z,95602.59
2023-02-15T00:25:24.386Z,95593.91
2023-02-15T00:27:51.062Z,95594.69
2023-02-15T00:30:17.854Z,95589.97
2023-02-15T00:32:45.687Z,95594.69
2023-02-15T00:35:12.751Z,95592.72
2023-02-15T00:37:40.837Z,95595.84
2023-02-15T00:40:08.036Z,95591.50
2023-02-15T00:42:35.906Z,95589.53
2023-02-15T00:45:02.593Z,95582.78
2023-02-15T00:47:29.359Z,95582.00
2023-02-15T00:49:56.170Z,95585.97
2023-02-15T00:52:22.999Z,95579.69
2023-02-15T00:54:49.752Z,95576.53
2023-02-15T00:57:16.858Z,95587.59
2023-02-15T00:59:43.538Z,95574.53
2023-02-15T01:02:10.272Z,95579.69
2023-02-15T01:04:37.158Z,95578.91
2023-02-15T01:07:03.889Z,95580.44
2023-02-15T01:09:30.666Z,95584.41
2023-02-15T01:11:57.416Z,95583.59
2023-02-15T01:14:24.446Z,95586.78
2023-02-15T01:16:51.415Z,95576.53
2023-02-15T01:19:19.216Z,95580.50
2023-02-15T01:21:46.247Z,95580.50
2023-02-15T01:24:14.008Z,95575.75
2023-02-15T01:26:40.772Z,95583.66
2023-02-15T01:29:07.938Z,95581.28
2023-02-15T01:31:37.515Z,95582.88
2023-02-15T01:34:04.621Z,95584.44
2023-02-15T01:36:31.401Z,95574.19
2023-02-15T01:38:58.102Z,95576.94
2023-02-15T01:41:24.816Z,95575.34
2023-02-15T01:43:54.106Z,95578.13
2023-02-15T01:46:23.931Z,95570.22
2023-02-15T01:48:57.806Z,95572.19
2023-02-15T01:51:25.345Z,95573.41
2023-02-15T01:53:54.832Z,95574.19
2023-02-15T01:56:24.519Z,95581.28
2023-02-15T01:58:52.318Z,95576.53
2023-02-15T02:01:19.242Z,95565.84
2023-02-15T02:04:34.411Z,95573.75
2023-02-15T02:07:02.016Z,95573.75
2023-02-15T02:09:29.304Z,95567.06
2023-02-15T02:11:56.978Z,95558.78
2023-02-15T02:14:23.675Z,95557.16
2023-02-15T02:17:17.793Z,95552.06
2023-02-15T02:20:04.544Z,95546.53
2023-02-15T02:22:56.360Z,95551.66
2023-02-15T02:26:00.972Z,95543.38
2023-02-15T02:29:03.635Z,95542.56
2023-02-15T02:31:52.243Z,95542.97
2023-02-15T02:34:39.154Z,95546.13
2023-02-15T02:37:30.096Z,95542.59
2023-02-15T02:39:57.924Z,95541.00
2023-02-15T02:42:44.315Z,95540.22
2023-02-15T02:45:16.387Z,95548.88
2023-02-15T02:47:48.748Z,95542.59
2023-02-15T02:50:18.996Z,95540.22
2023-02-15T02:52:50.346Z,95540.59
2023-02-15T02:55:22.622Z,95538.25
2023-02-15T02:57:54.790Z,95539.84
2023-02-15T03:00:22.800Z,95537.41
2023-02-15T03:02:50.134Z,95534.69
2023-02-15T03:05:19.211Z,95541.00
2023-02-15T03:07:47.868Z,95536.25
2023-02-15T03:10:14.742Z,95537.44
2023-02-15T03:12:41.433Z,95533.50
2023-02-15T03:15:14.035Z,95531.94
2023-02-15T03:17:43.424Z,95531.53
2023-02-15T03:20:15.405Z,95538.63
2023-02-15T03:22:46.465Z,95532.31
2023-02-15T03:25:17.689Z,95532.69
2023-02-15T03:28:10.658Z,95527.97
2023-02-15T03:30:37.632Z,95530.72
2023-02-15T03:33:04.381Z,95531.94
2023-02-15T03:36:08.613Z,95527.19
2023-02-15T03:38:59.756Z,95531.94
2023-02-15T03:41:28.717Z,95526.78
2023-02-15T03:43:57.905Z,95532.31
2023-02-15T03:46:35.627Z,95532.34
2023-02-15T03:49:28.536Z,95539.00
2023-02-15T03:51:56.865Z,95537.41
2023-02-15T03:54:28.650Z,95535.84
2023-02-15T03:56:55.357Z,95535.06
2023-02-15T03:59:22.124Z,95544.50
2023-02-15T04:02:15.433Z,95544.53
2023-02-15T04:04:43.363Z,95546.13
2023-02-15T04:07:13.008Z,95543.38
2023-02-15T04:09:39.710Z,95544.94
2023-02-15T04:12:06.785Z,95544.91
2023-02-15T04:14:53.509Z,95543.31
2023-02-15T04:17:20.221Z,95547.28
2023-02-15T04:19:47.057Z,95537.38
2023-02-15T04:22:14.317Z,95537.00
2023-02-15T04:24:41.212Z,95546.06
2023-02-15T04:27:08.366Z,95540.53
2023-02-15T04:29:35.367Z,95550.41
2023-02-15T04:32:02.581Z,95549.59
2023-02-15T04:34:29.402Z,95555.09
2023-02-15T04:36:56.231Z,95556.31
2023-02-15T04:39:23.008Z,95546.41
2023-02-15T04:41:49.701Z,95547.25
2023-02-15T04:44:17.596Z,95548.44
2023-02-15T04:46:44.354Z,95542.91
2023-02-15T04:49:11.456Z,95545.69
2023-02-15T04:51:38.526Z,95547.66
2023-02-15T04:54:05.600Z,95543.31
2023-02-15T04:56:32.764Z,95545.69
2023-02-15T04:58:59.947Z,95546.50
2023-02-15T05:01:29.967Z,95544.91
2023-02-15T05:03:57.260Z,95548.88
2023-02-15T05:06:24.054Z,95547.28
2023-02-15T05:08:51.099Z,95540.16
2023-02-15T05:11:20.850Z,95546.88
2023-02-15T05:13:48.158Z,95542.50
2023-02-15T05:16:14.894Z,95537.78
2023-02-15T05:18:41.740Z,95535.41
2023-02-15T05:21:08.477Z,95541.69
2023-02-15T05:23:35.254Z,95537.41
2023-02-15T05:26:02.735Z,95534.22
2023-02-15T05:28:30.114Z,95535.00
2023-02-15T05:31:06.597Z,95527.91
2023-02-15T05:33:33.768Z,95536.97
2023-02-15T05:36:02.167Z,95534.22
2023-02-15T05:38:30.399Z,95528.31
2023-02-15T05:40:57.491Z,95536.22
2023-02-15T05:43:27.241Z,95538.56
2023-02-15T05:45:56.804Z,95545.66
2023-02-15T05:48:25.929Z,95541.31
2023-02-15T05:51:14.205Z,95544.84
2023-02-15T05:53:40.984Z,95542.47
2023-02-15T05:56:11.885Z,95546.41
2023-02-15T05:58:40.149Z,95552.31
2023-02-15T06:01:12.303Z,95556.28
2023-02-15T06:03:39.066Z,95552.69
2023-02-15T06:06:05.911Z,95553.09
2023-02-15T06:08:33.836Z,95555.03
2023-02-15T06:11:01.038Z,95547.19
2023-02-15T06:13:27.751Z,95553.50
2023-02-15T06:15:55.130Z,95554.31
2023-02-15T06:18:22.237Z,95551.91
2023-02-15T06:20:48.948Z,95558.25
2023-02-15T06:23:16.051Z,95558.25
2023-02-15T06:25:44.453Z,95559.03
2023-02-15T06:28:11.295Z,95561.78
2023-02-15T06:30:39.092Z,95562.19
2023-02-15T06:33:08.778Z,95559.44
2023-02-15T06:35:38.267Z,95566.16
2023-02-15T06:38:04.980Z,95566.56
2023-02-15T06:40:32.141Z,95576.09
2023-02-15T06:42:59.238Z,95576.94
2023-02-15T06:45:25.942Z,95584.00
2023-02-15T06:47:55.389Z,95582.75
2023-02-15T06:50:22.499Z,95585.91
2023-02-15T06:52:49.830Z,95589.41
2023-02-15T06:55:16.546Z,95578.31
2023-02-15T06:57:45.974Z,95584.22
2023-02-15T07:00:13.533Z,95575.59
2023-02-15T07:02:40.621Z,95584.25
2023-02-15T07:05:07.454Z,95581.91
2023-02-15T07:07:34.576Z,95578.78
2023-02-15T07:10:04.764Z,95577.19
2023-02-15T07:12:31.475Z,95585.50
2023-02-15T07:14:58.524Z,95584.75
2023-02-15T07:17:35.526Z,95578.84
2023-02-15T07:20:07.326Z,95578.88
2023-02-15T07:22:37.016Z,95579.28
2023-02-15T07:25:04.971Z,95577.31
2023-02-15T07:27:34.535Z,95574.94
2023-02-15T07:30:01.613Z,95574.16
2023-02-15T07:32:29.823Z,95559.94
2023-02-15T07:34:59.163Z,95559.16
2023-02-15T07:37:26.104Z,95555.22
2023-02-15T07:39:54.019Z,95562.72
2023-02-15T07:42:21.846Z,95567.06
2023-02-15T07:44:49.141Z,95562.31
2023-02-15T07:47:15.870Z,95569.38
2023-02-15T07:49:42.690Z,95564.91
2023-02-15T07:52:09.776Z,95561.09
2023-02-15T07:54:39.687Z,95558.28
2023-02-15T07:57:06.858Z,95554.63
2023-02-15T07:59:34.083Z,95554.59
2023-02-15T08:02:00.826Z,95545.88
2023-02-15T08:04:27.522Z,95547.50
2023-02-15T08:06:54.581Z,95540.19
2023-02-15T08:09:21.325Z,95543.84
2023-02-15T08:11:48.229Z,95548.38
2023-02-15T08:14:21.878Z,95544.09
2023-02-15T08:16:52.624Z,95544.41
2023-02-15T08:19:22.939Z,95542.06
2023-02-15T08:21:54.405Z,95530.75
2023-02-15T08:24:22.194Z,95533.44
2023-02-15T08:26:49.262Z,95535.56
2023-02-15T08:29:16.531Z,95535.31
2023-02-15T08:31:43.692Z,95537.28
2023-02-15T08:34:11.295Z,95535.63
2023-02-15T08:36:38.143Z,95536.00
2023-02-15T08:39:05.473Z,95531.22
2023-02-15T08:41:33.995Z,95530.53
2023-02-15T08:44:02.789Z,95519.78
2023-02-15T08:46:33.341Z,95517.06
2023-02-15T08:49:00.129Z,95519.13
2023-02-15T08:51:34.559Z,95512.91
2023-02-15T08:54:09.144Z,95523.09
2023-02-15T08:56:40.202Z,95515.16
2023-02-15T08:59:07.760Z,95510.97
2023-02-15T09:01:35.065Z,95500.56
2023-02-15T09:04:08.469Z,95502.50
2023-02-15T09:06:35.191Z,95501.31
2023-02-15T09:09:04.801Z,95499.06
2023-02-15T09:11:42.679Z,95502.88
2023-02-15T09:14:13.754Z,95514.44
2023-02-15T09:16:40.679Z,95510.25
2023-02-15T09:19:08.672Z,95503.81
2023-02-15T09:21:36.791Z,95502.66
2023-02-15T09:24:05.417Z,95496.91
2023-02-15T09:26:33.078Z,95501.63
2023-02-15T09:29:00.807Z,95498.00
2023-02-15T09:31:34.995Z,95501.41
2023-02-15T09:34:01.835Z,95493.78
2023-02-15T09:36:32.226Z,95493.03
2023-02-15T09:39:05.128Z,95502.09
2023-02-15T09:41:55.996Z,95495.09
2023-02-15T09:44:53.629Z,95495.31
2023-02-15T09:47:53.208Z,95486.97
2023-02-15T09:50:44.775Z,95485.84
2023-02-15T09:53:30.465Z,95491.16
2023-02-15T09:56:06.203Z,95493.66
2023-02-15T09:58:51.489Z,95490.34
2023-02-15T10:01:25.026Z,95488.19
2023-02-15T10:04:16.363Z,95489.72
2023-02-15T10:07:06.894Z,95492.00
2023-02-15T10:09:50.699Z,95488.09
2023-02-15T10:12:38.148Z,95484.41
2023-02-15T10:15:19.985Z,95477.69
2023-02-15T10:18:10.647Z,95485.16
2023-02-15T10:21:09.731Z,95485.53
2023-02-15T10:23:51.480Z,95484.72
2023-02-15T10:26:33.813Z,95485.56
2023-02-15T10:29:00.509Z,95479.00
2023-02-15T10:31:45.752Z,95480.22
2023-02-15T10:35:02.733Z,95482.72
2023-02-15T10:37:35.134Z,95480.56
2023-02-15T10:40:23.273Z,95475.88
2023-02-15T10:43:05.545Z,95478.50
2023-02-15T10:45:38.131Z,95483.84
2023-02-15T10:48:15.345Z,95479.94
2023-02-15T10:50:55.823Z,95477.59
2023-02-15T10:53:37.244Z,95470.28
2023-02-15T10:56:31.961Z,95468.91
2023-02-15T10:59:37.997Z,95467.75
2023-02-15T11:02:35.944Z,95466.97
2023-02-15T11:05:41.341Z,95470.75
2023-02-15T11:08:10.080Z,95462.59
2023-02-15T11:10:52.414Z,95454.44
2023-02-15T11:13:20.857Z,95456.31
2023-02-15T11:15:48.927Z,95456.75
2023-02-15T11:18:23.114Z,95453.53
2023-02-15T11:21:09.708Z,95444.72
2023-02-15T11:23:37.463Z,95441.56
2023-02-15T11:26:05.744Z,95441.22
2023-02-15T11:28:38.217Z,95443.34
2023-02-15T11:31:18.639Z,95442.47
2023-02-15T11:33:51.682Z,95434.56
2023-02-15T11:36:29.685Z,95431.56
2023-02-15T11:38:59.227Z,95431.31
2023-02-15T11:41:31.022Z,95429.59
2023-02-15T11:44:14.488Z,95423.22
2023-02-15T11:46:41.560Z,95430.78
2023-02-15T11:49:23.158Z,95424.63
2023-02-15T11:51:50.042Z,95423.41
2023-02-15T11:54:17.153Z,95412.28
2023-02-15T11:56:43.854Z,95404.66
2023-02-15T11:59:12.708Z,95401.84
2023-02-15T12:01:42.205Z,95407.66
2023-02-15T12:04:39.771Z,95403.28
2023-02-15T12:07:15.201Z,95402.34
2023-02-15T12:09:57.168Z,95395.03
2023-02-15T12:12:38.428Z,95407.59
2023-02-15T12:15:09.287Z,95390.69
2023-02-15T12:17:40.506Z,95393.13
2023-02-15T12:20:16.210Z,95395.69
2023-02-15T12:23:05.644Z,95388.22
2023-02-15T12:25:38.947Z,95389.66
2023-02-15T12:28:17.049Z,95379.69
2023-02-15T12:30:46.738Z,95374.72
2023-02-15T12:33:25.906Z,95372.66
2023-02-15T12:36:13.775Z,95377.81
2023-02-15T12:38:40.492Z,95378.28
2023-02-15T12:41:27.047Z,95378.78
2023-02-15T12:44:05.579Z,95378.59
2023-02-15T12:46:37.925Z,95375.38
2023-02-15T12:49:11.826Z,95376.41
2023-02-15T12:51:46.599Z,95371.91
2023-02-15T12:54:25.412Z,95374.97
2023-02-15T12:56:52.220Z,95373.47
2023-02-15T12:59:23.120Z,95370.97
2023-02-15T13:01:50.229Z,95359.56
2023-02-15T13:04:29.302Z,95369.81
2023-02-15T13:06:58.534Z,95364.59
2023-02-15T13:09:38.946Z,95369.66
2023-02-15T13:12:17.094Z,95362.53
2023-02-15T13:14:48.223Z,95373.44
2023-02-15T13:17:15.310Z,95368.91
2023-02-15T13:20:08.641Z,95367.81
2023-02-15T13:22:40.314Z,95367.19
2023-02-15T13:25:15.867Z,95362.50
2023-02-15T13:27:42.548Z,95362.59
2023-02-15T13:30:25.561Z,95360.19
2023-02-15T13:33:04.608Z,95354.88
2023-02-15T13:35:46.342Z,95348.63
2023-02-15T13:38:16.953Z,95351.13
2023-02-15T13:40:54.505Z,95343.38
2023-02-15T13:43:34.358Z,95343.47
2023-02-15T13:46:45.686Z,95346.13
2023-02-15T13:49:27.569Z,95347.41
2023-02-15T13:52:17.234Z,95336.53
2023-02-15T13:55:11.602Z,95332.91
2023-02-15T13:58:06.177Z,95326.25
2023-02-15T14:00:43.794Z,95331.69
2023-02-15T14:03:43.570Z,95332.22
2023-02-15T14:06:51.242Z,95324.78
2023-02-15T14:09:36.366Z,95328.81
2023-02-15T14:12:30.359Z,95326.94
2023-02-15T14:15:35.706Z,95331.97
2023-02-15T14:18:17.786Z,95333.88
2023-02-15T14:21:03.410Z,95328.19
2023-02-15T14:24:12.855Z,95328.59
2023-02-15T14:27:09.287Z,95324.91
2023-02-15T14:29:47.580Z,95316.53
2023-02-15T14:32:34.176Z,95324.38
2023-02-15T14:35:01.563Z,95316.13
2023-02-15T14:37:44.804Z,95310.28
2023-02-15T14:40:23.005Z,95321.09
2023-02-15T14:43:02.000Z,95312.00
2023-02-15T14:45:40.696Z,95316.19
2023-02-15T14:48:31.253Z,95319.66
2023-02-15T14:50:58.041Z,95328.81
2023-02-15T14:53:28.753Z,95330.50
2023-02-15T14:56:23.164Z,95323.22
2023-02-15T14:58:57.524Z,95327.38
2023-02-15T15:01:34.811Z,95333.69
2023-02-15T15:04:04.514Z,95332.19
2023-02-15T15:06:34.757Z,95330.13
2023-02-15T15:09:11.306Z,95330.53
2023-02-15T15:11:43.808Z,95325.03
2023-02-15T15:14:12.446Z,95322.31
2023-02-15T15:16:39.030Z,95315.28
2023-02-15T15:19:10.537Z,95319.41
2023-02-15T15:21:49.445Z,95327.53
2023-02-15T15:24:38.019Z,95325.13
2023-02-15T15:27:58.837Z,95333.78
2023-02-15T15:30:30.974Z,95331.31
2023-02-15T15:33:10.027Z,95334.06
2023-02-15T15:35:52.722Z,95327.50
2023-02-15T15:38:28.721Z,95329.63
2023-02-15T15:41:20.386Z,95329.66
2023-02-15T15:44:10.399Z,95332.00
2023-02-15T15:47:17.833Z,95328.44
2023-02-15T15:49:44.527Z,95337.44
2023-02-15T15:52:21.597Z,95335.91
2023-02-15T15:54:51.022Z,95330.88
2023-02-15T15:57:25.297Z,95339.41
2023-02-15T15:59:52.367Z,95343.41
2023-02-15T16:02:19.179Z,95347.53
2023-02-15T16:04:46.338Z,95355.09
2023-02-15T16:07:19.031Z,95350.06
2023-02-15T16:09:59.390Z,95355.53
2023-02-15T16:12:28.098Z,95355.59
2023-02-15T16:14:55.357Z,95363.03
2023-02-15T16:17:25.475Z,95361.50
2023-02-15T16:19:52.557Z,95370.34
2023-02-15T16:22:23.230Z,95372.28
2023-02-15T16:25:00.398Z,95377.63
2023-02-15T16:27:38.726Z,95372.94
2023-02-15T16:30:22.700Z,95372.59
2023-02-15T16:32:50.189Z,95375.66
2023-02-15T16:35:22.548Z,95373.56
2023-02-15T16:37:49.716Z,95375.94
2023-02-15T16:40:36.121Z,95373.13
2023-02-15T16:43:04.235Z,95376.59
2023-02-15T16:45:31.338Z,95371.09
2023-02-15T16:47:58.365Z,95381.06
2023-02-15T16:50:34.590Z,95377.88
2023-02-15T16:53:01.504Z,95377.78
2023-02-15T16:55:30.261Z,95380.06
2023-02-15T16:58:02.014Z,95377.78
2023-02-15T17:00:31.559Z,95386.84
2023-02-15T17:03:06.748Z,95384.69
2023-02-15T17:05:34.674Z,95390.03
2023-02-15T17:08:13.745Z,95391.84
2023-02-15T17:10:41.248Z,95393.13
2023-02-15T17:13:14.754Z,95395.06
2023-02-15T17:16:05.407Z,95406.47
2023-02-15T17:18:40.647Z,95401.06
2023-02-15T17:21:18.139Z,95404.13
2023-02-15T17:23:49.218Z,95411.09
2023-02-15T17:26:22.765Z,95411.97
2023-02-15T17:28:56.862Z,95410.84
2023-02-15T17:31:25.445Z,95415.81
2023-02-15T17:33:52.391Z,95425.19
2023-02-15T17:36:20.432Z,95426.91
2023-02-15T17:39:04.567Z,95429.09
2023-02-15T17:41:32.668Z,95433.84
2023-02-15T17:44:01.295Z,95433.13
2023-02-15T17:46:30.124Z,95433.25
2023-02-15T17:48:56.810Z,95438.34
2023-02-15T17:51:26.499Z,95432.47
2023-02-15T17:53:53.536Z,95435.19
2023-02-15T17:56:20.285Z,95437.34
2023-02-15T17:58:47.006Z,95437.56
2023-02-15T18:01:17.924Z,95440.72
2023-02-15T18:03:48.281Z,95437.63
2023-02-15T18:06:15.022Z,95437.44
2023-02-15T18:08:41.720Z,95444.38
2023-02-15T18:11:09.220Z,95439.41
2023-02-15T18:13:35.929Z,95440.56
2023-02-15T18:16:02.630Z,95437.22
2023-02-15T18:18:29.364Z,95439.72
2023-02-15T18:20:56.110Z,95450.78
2023-02-15T18:23:23.136Z,95440.84
2023-02-15T18:25:50.230Z,95444.22
2023-02-15T18:28:16.931Z,95442.66
2023-02-15T18:30:43.700Z,95442.34
2023-02-15T18:33:34.345Z,95443.00
2023-02-15T18:36:02.209Z,95440.06
2023-02-15T18:38:29.197Z,95431.47
2023-02-15T18:40:55.985Z,95445.00
2023-02-15T18:43:23.186Z,95445.91
2023-02-15T18:45:49.918Z,95457.41
2023-02-15T18:48:16.647Z,95450.78
2023-02-15T18:50:43.725Z,95454.13
2023-02-15T18:53:17.867Z,95459.19
2023-02-15T18:55:44.644Z,95451.47
2023-02-15T18:58:19.073Z,95452.75
2023-02-15T19:00:45.904Z,95451.13
2023-02-15T19:03:13.643Z,95447.34
2023-02-15T19:05:41.972Z,95444.13
2023-02-15T19:08:15.387Z,95445.84
2023-02-15T19:10:52.526Z,95447.84
2023-02-15T19:13:19.238Z,95454.19
2023-02-15T19:15:45.911Z,95444.59
2023-02-15T19:18:12.659Z,95446.59
2023-02-15T19:20:44.709Z,95445.78
2023-02-15T19:23:17.244Z,95444.84
2023-02-15T19:25:43.943Z,95440.59
2023-02-15T19:28:23.689Z,95438.31
2023-02-15T19:30:50.804Z,95441.94
2023-02-15T19:33:19.281Z,95443.88
2023-02-15T19:35:47.520Z,95452.56
2023-02-15T19:38:23.177Z,95440.84
2023-02-15T19:40:49.862Z,95443.88
2023-02-15T19:43:40.044Z,95439.94
2023-02-15T19:46:07.059Z,95441.84
2023-02-15T19:48:34.206Z,95452.44
2023-02-15T19:51:01.222Z,95449.75
2023-02-15T19:53:28.676Z,95442.63
2023-02-15T19:55:55.360Z,95451.19
2023-02-15T19:58:22.063Z,95441.91
2023-02-15T20:00:50.942Z,95444.47
2023-02-15T20:03:17.671Z,95446.88
2023-02-15T20:05:44.418Z,95445.06
2023-02-15T20:08:18.313Z,95448.78
2023-02-15T20:10:45.445Z,95452.81
2023-02-15T20:13:19.373Z,95451.13
2023-02-15T20:15:49.513Z,95451.03
2023-02-15T20:18:16.261Z,95452.47
2023-02-15T20:20:47.026Z,95446.28
2023-02-15T20:23:44.659Z,95452.31
2023-02-15T20:26:13.924Z,95439.22
2023-02-15T20:28:40.697Z,95446.38
2023-02-15T20:31:13.518Z,95435.19
2023-02-15T20:33:41.233Z,95442.28
2023-02-15T20:36:14.113Z,95434.31
2023-02-15T20:38:40.870Z,95442.88
2023-02-15T20:41:15.142Z,95450.25
2023-02-15T20:43:42.624Z,95449.00
2023-02-15T20:46:09.466Z,95452.13
2023-02-15T20:48:36.246Z,95444.47
2023-02-15T20:51:03.301Z,95447.28
2023-02-15T20:53:30.189Z,95443.38
2023-02-15T20:55:57.345Z,95439.72
2023-02-15T20:58:25.744Z,95444.41
2023-02-15T21:00:52.445Z,95447.75
2023-02-15T21:03:21.774Z,95444.94
2023-02-15T21:05:48.479Z,95447.91
2023-02-15T21:08:18.933Z,95453.38
2023-02-15T21:10:46.186Z,95451.84
2023-02-15T21:13:19.923Z,95447.72
2023-02-15T21:15:51.832Z,95449.50
2023-02-15T21:18:26.313Z,95448.25
2023-02-15T21:20:57.690Z,95443.09
2023-02-15T21:23:29.047Z,95449.06
2023-02-15T21:25:56.200Z,95441.44
2023-02-15T21:28:24.839Z,95431.09
2023-02-15T21:30:52.063Z,95432.03
2023-02-15T21:33:18.863Z,95435.50
2023-02-15T21:35:47.726Z,95431.94
2023-02-15T21:38:19.895Z,95431.44
2023-02-15T21:40:46.690Z,95440.69
2023-02-15T21:43:23.131Z,95441.91
2023-02-15T21:45:50.121Z,95440.69
2023-02-15T21:48:16.827Z,95434.09
2023-02-15T21:50:43.590Z,95449.19
2023-02-15T21:53:12.056Z,95444.81
2023-02-15T21:55:45.927Z,95448.34
2023-02-15T21:58:19.732Z,95441.41
2023-02-15T22:00:46.798Z,95445.03
2023-02-15T22:03:13.572Z,95448.94
2023-02-15T22:05:40.440Z,95437.91
2023-02-15T22:08:13.482Z,95440.03
2023-02-15T22:10:40.328Z,95446.03
2023-02-15T22:13:09.523Z,95452.56
2023-02-15T22:15:36.712Z,95453.94
2023-02-15T22:18:03.748Z,95455.03
2023-02-15T22:20:30.845Z,95447.84
2023-02-15T22:22:57.533Z,95455.91
2023-02-15T22:25:24.714Z,95449.09
2023-02-15T22:27:52.443Z,95448.31
2023-02-15T22:30:33.123Z,95446.59
2023-02-15T22:33:00.100Z,95442.22
2023-02-15T22:35:31.898Z,95451.06
2023-02-15T22:37:58.732Z,95440.81
2023-02-15T22:40:33.351Z,95445.22
2023-02-15T22:43:01.874Z,95454.31
2023-02-15T22:45:28.655Z,95447.06
2023-02-15T22:47:56.661Z,95440.31
2023-02-15T22:50:24.914Z,95448.50
2023-02-15T22:52:51.602Z,95446.56
2023-02-15T22:55:20.190Z,95440.22
2023-02-15T22:57:48.249Z,95444.16
2023-02-15T23:00:19.771Z,95446.72
2023-02-15T23:02:46.531Z,95440.56
2023-02-15T23:05:22.537Z,95439.38
2023-02-15T23:07:49.374Z,95432.66
2023-02-15T23:10:16.991Z,95438.41
2023-02-15T23:12:43.689Z,95439.56
2023-02-15T23:15:11.705Z,95441.53
2023-02-15T23:17:38.749Z,95450.00
2023-02-15T23:20:06.222Z,95452.78
2023-02-15T23:22:32.907Z,95450.78
2023-02-15T23:24:59.623Z,95451.84
2023-02-15T23:27:26.359Z,95449.03
2023-02-15T23:29:53.084Z,95451.25
2023-02-15T23:32:19.791Z,95455.19
2023-02-15T23:34:48.091Z,95457.72
2023-02-15T23:37:16.253Z,95460.22
2023-02-15T23:39:43.318Z,95453.06
2023-02-15T23:42:21.163Z,95452.56
2023-02-15T23:44:48.264Z,95454.78
2023-02-15T23:47:29.298Z,95460.38
2023-02-15T23:49:56.414Z,95449.97
2023-02-15T23:52:24.515Z,95453.16
2023-02-15T23:54:51.222Z,95457.34
2023-02-15T23:57:17.903Z,95456.84
2023-02-15T23:59:44.651Z,95464.38
